sensor_id;sensor_type;location;lat;lon;timestamp;pressure;altitude;pressure_sealevel;temperature;humidity
65546;BME280;52177;55.968;37.498;2022-12-07T00:00:19;100854.94;;;-6.78;45.61
65546;BME280;52177;55.968;37.498;2022-12-07T00:00:50;100851.44;;;-6.77;45.43
65546;BME280;52177;55.968;37.498;2022-12-07T00:01:32;100854.03;;;-6.77;45.46
65546;BME280;52177;55.968;37.498;2022-12-07T00:02:02;100853.97;;;-6.74;45.47
65546;BME280;52177;55.968;37.498;2022-12-07T00:02:33;100854.00;;;-6.76;45.31
65546;BME280;52177;55.968;37.498;2022-12-07T00:03:03;100859.22;;;-6.77;45.50
65546;BME280;52177;55.968;37.498;2022-12-07T00:03:33;100858.34;;;-6.76;45.83
65546;BME280;52177;55.968;37.498;2022-12-07T00:04:04;100856.59;;;-6.76;45.99
65546;BME280;52177;55.968;37.498;2022-12-07T00:04:35;100854.84;;;-6.75;46.28
65546;BME280;52177;55.968;37.498;2022-12-07T00:05:06;100854.00;;;-6.76;46.23
65546;BME280;52177;55.968;37.498;2022-12-07T00:05:36;100850.53;;;-6.75;46.30
65546;BME280;52177;55.968;37.498;2022-12-07T00:06:07;100847.97;;;-6.76;46.49
65546;BME280;52177;55.968;37.498;2022-12-07T00:06:43;100854.03;;;-6.77;45.96
65546;BME280;52177;55.968;37.498;2022-12-07T00:07:14;100848.84;;;-6.77;46.06
65546;BME280;52177;55.968;37.498;2022-12-07T00:07:44;100849.69;;;-6.77;46.18
65546;BME280;52177;55.968;37.498;2022-12-07T00:08:14;100847.97;;;-6.76;46.23
65546;BME280;52177;55.968;37.498;2022-12-07T00:08:45;100841.91;;;-6.75;46.20
65546;BME280;52177;55.968;37.498;2022-12-07T00:09:16;100847.97;;;-6.76;45.87
65546;BME280;52177;55.968;37.498;2022-12-07T00:09:47;100847.09;;;-6.77;45.89
65546;BME280;52177;55.968;37.498;2022-12-07T00:10:17;100851.44;;;-6.76;45.74
65546;BME280;52177;55.968;37.498;2022-12-07T00:10:47;100850.53;;;-6.75;45.96
65546;BME280;52177;55.968;37.498;2022-12-07T00:11:19;100851.38;;;-6.74;45.77
65546;BME280;52177;55.968;37.498;2022-12-07T00:11:50;100844.53;;;-6.77;45.51
65546;BME280;52177;55.968;37.498;2022-12-07T00:12:21;100848.00;;;-6.78;45.47
65546;BME280;52177;55.968;37.498;2022-12-07T00:12:51;100849.69;;;-6.77;45.74
65546;BME280;52177;55.968;37.498;2022-12-07T00:13:21;100847.97;;;-6.76;45.79
65546;BME280;52177;55.968;37.498;2022-12-07T00:13:53;100847.09;;;-6.75;45.97
65546;BME280;52177;55.968;37.498;2022-12-07T00:14:23;100850.47;;;-6.72;46.20
65546;BME280;52177;55.968;37.498;2022-12-07T00:14:53;100847.00;;;-6.72;45.87
65546;BME280;52177;55.968;37.498;2022-12-07T00:15:24;100852.19;;;-6.72;46.18
65546;BME280;52177;55.968;37.498;2022-12-07T00:15:54;100853.06;;;-6.72;46.35
65546;BME280;52177;55.968;37.498;2022-12-07T00:16:25;100851.34;;;-6.73;46.09
65546;BME280;52177;55.968;37.498;2022-12-07T00:16:56;100849.56;;;-6.71;45.70
65546;BME280;52177;55.968;37.498;2022-12-07T00:17:26;100847.00;;;-6.72;45.67
65546;BME280;52177;55.968;37.498;2022-12-07T00:17:56;100847.91;;;-6.73;45.41
65546;BME280;52177;55.968;37.498;2022-12-07T00:18:26;100852.25;;;-6.75;45.58
65546;BME280;52177;55.968;37.498;2022-12-07T00:18:57;100854.84;;;-6.75;45.42
65546;BME280;52177;55.968;37.498;2022-12-07T00:19:27;100848.00;;;-6.78;45.48
65546;BME280;52177;55.968;37.498;2022-12-07T00:19:57;100851.44;;;-6.77;45.79
65546;BME280;52177;55.968;37.498;2022-12-07T00:20:27;100850.56;;;-6.76;45.43
65546;BME280;52177;55.968;37.498;2022-12-07T00:21:32;100848.03;;;-6.80;45.38
65546;BME280;52177;55.968;37.498;2022-12-07T00:22:02;100848.88;;;-6.79;45.69
65546;BME280;52177;55.968;37.498;2022-12-07T00:22:33;100841.97;;;-6.78;45.54
65546;BME280;52177;55.968;37.498;2022-12-07T00:23:03;100844.56;;;-6.78;45.40
65546;BME280;52177;55.968;37.498;2022-12-07T00:23:33;100851.47;;;-6.79;45.80
65546;BME280;52177;55.968;37.498;2022-12-07T00:24:04;100853.22;;;-6.80;45.43
65546;BME280;52177;55.968;37.498;2022-12-07T00:24:34;100848.84;;;-6.77;45.71
65546;BME280;52177;55.968;37.498;2022-12-07T00:25:05;100855.75;;;-6.76;45.59
65546;BME280;52177;55.968;37.498;2022-12-07T00:25:35;100852.25;;;-6.75;45.69
65546;BME280;52177;55.968;37.498;2022-12-07T00:26:36;100854.84;;;-6.74;45.42
65546;BME280;52177;55.968;37.498;2022-12-07T00:27:07;100852.16;;;-6.71;45.77
65546;BME280;52177;55.968;37.498;2022-12-07T00:27:37;100855.66;;;-6.72;45.58
65546;BME280;52177;55.968;37.498;2022-12-07T00:28:07;100853.94;;;-6.73;45.50
65546;BME280;52177;55.968;37.498;2022-12-07T00:28:39;100856.53;;;-6.74;45.37
65546;BME280;52177;55.968;37.498;2022-12-07T00:29:17;100847.16;;;-6.78;45.39
65546;BME280;52177;55.968;37.498;2022-12-07T00:29:47;100854.13;;;-6.81;45.18
65546;BME280;52177;55.968;37.498;2022-12-07T00:30:18;100847.22;;;-6.82;45.46
65546;BME280;52177;55.968;37.498;2022-12-07T00:30:48;100848.13;;;-6.83;45.48
65546;BME280;52177;55.968;37.498;2022-12-07T00:31:19;100854.16;;;-6.82;45.51
65546;BME280;52177;55.968;37.498;2022-12-07T00:31:50;100852.41;;;-6.82;45.45
65546;BME280;52177;55.968;37.498;2022-12-07T00:32:20;100848.09;;;-6.81;45.77
65546;BME280;52177;55.968;37.498;2022-12-07T00:32:50;100851.44;;;-6.77;45.83
65546;BME280;52177;55.968;37.498;2022-12-07T00:33:20;100853.16;;;-6.76;45.93
65546;BME280;52177;55.968;37.498;2022-12-07T00:33:51;100853.16;;;-6.76;45.90
65546;BME280;52177;55.968;37.498;2022-12-07T00:34:21;100858.28;;;-6.75;45.65
65546;BME280;52177;55.968;37.498;2022-12-07T00:34:51;100852.25;;;-6.75;45.69
65546;BME280;52177;55.968;37.498;2022-12-07T00:35:21;100853.16;;;-6.76;45.68
65546;BME280;52177;55.968;37.498;2022-12-07T00:35:55;100862.63;;;-6.75;45.75
65546;BME280;52177;55.968;37.498;2022-12-07T00:36:26;100859.13;;;-6.74;45.59
65546;BME280;52177;55.968;37.498;2022-12-07T00:36:56;100855.75;;;-6.76;45.60
65546;BME280;52177;55.968;37.498;2022-12-07T00:37:26;100860.94;;;-6.76;45.87
65546;BME280;52177;55.968;37.498;2022-12-07T00:37:57;100855.75;;;-6.76;45.75
65546;BME280;52177;55.968;37.498;2022-12-07T00:38:27;100864.31;;;-6.74;45.84
65546;BME280;52177;55.968;37.498;2022-12-07T00:38:59;100862.63;;;-6.74;45.61
65546;BME280;52177;55.968;37.498;2022-12-07T00:39:29;100854.88;;;-6.77;45.68
65546;BME280;52177;55.968;37.498;2022-12-07T00:39:59;100854.84;;;-6.75;45.70
65546;BME280;52177;55.968;37.498;2022-12-07T00:40:30;100852.28;;;-6.77;45.51
65546;BME280;52177;55.968;37.498;2022-12-07T00:41:01;100851.44;;;-6.77;45.69
65546;BME280;52177;55.968;37.498;2022-12-07T00:41:31;100856.59;;;-6.76;45.69
65546;BME280;52177;55.968;37.498;2022-12-07T00:42:02;100852.25;;;-6.75;45.48
65546;BME280;52177;55.968;37.498;2022-12-07T00:42:32;100859.19;;;-6.76;45.60
65546;BME280;52177;55.968;37.498;2022-12-07T00:43:02;100863.53;;;-6.76;45.73
65546;BME280;52177;55.968;37.498;2022-12-07T00:43:33;100860.94;;;-6.76;45.87
65546;BME280;52177;55.968;37.498;2022-12-07T00:44:03;100852.28;;;-6.77;45.82
65546;BME280;52177;55.968;37.498;2022-12-07T00:44:33;100861.00;;;-6.80;45.69
65546;BME280;52177;55.968;37.498;2022-12-07T00:45:04;100855.81;;;-6.80;45.83
65546;BME280;52177;55.968;37.498;2022-12-07T00:45:34;100853.22;;;-6.80;45.61
65546;BME280;52177;55.968;37.498;2022-12-07T00:46:04;100858.41;;;-6.80;45.74
65546;BME280;52177;55.968;37.498;2022-12-07T00:46:35;100854.94;;;-6.78;45.90
65546;BME280;52177;55.968;37.498;2022-12-07T00:47:05;100860.06;;;-6.77;46.05
65546;BME280;52177;55.968;37.498;2022-12-07T00:47:35;100862.72;;;-6.78;46.11
65546;BME280;52177;55.968;37.498;2022-12-07T00:48:05;100858.41;;;-6.80;45.63
65546;BME280;52177;55.968;37.498;2022-12-07T00:48:36;100861.84;;;-6.79;45.74
65546;BME280;52177;55.968;37.498;2022-12-07T00:49:06;100853.19;;;-6.78;45.87
65546;BME280;52177;55.968;37.498;2022-12-07T00:49:36;100858.38;;;-6.78;45.77
65546;BME280;52177;55.968;37.498;2022-12-07T00:50:07;100857.44;;;-6.75;45.91
65546;BME280;52177;55.968;37.498;2022-12-07T00:50:37;100858.28;;;-6.75;45.89
65546;BME280;52177;55.968;37.498;2022-12-07T00:51:07;100861.78;;;-6.76;45.54
65546;BME280;52177;55.968;37.498;2022-12-07T00:51:38;100859.25;;;-6.79;46.02
65546;BME280;52177;55.968;37.498;2022-12-07T00:52:09;100861.94;;;-6.82;45.53
65546;BME280;52177;55.968;37.498;2022-12-07T00:52:39;100862.03;;;-6.85;45.60
65546;BME280;52177;55.968;37.498;2022-12-07T00:53:09;100860.28;;;-6.86;45.92
65546;BME280;52177;55.968;37.498;2022-12-07T00:53:39;100861.19;;;-6.87;45.86
65546;BME280;52177;55.968;37.498;2022-12-07T00:54:10;100864.63;;;-6.87;46.17
65546;BME280;52177;55.968;37.498;2022-12-07T00:54:40;100860.34;;;-6.88;46.39
65546;BME280;52177;55.968;37.498;2022-12-07T00:55:10;100862.09;;;-6.88;45.87
65546;BME280;52177;55.968;37.498;2022-12-07T00:55:41;100865.53;;;-6.88;45.98
65546;BME280;52177;55.968;37.498;2022-12-07T00:56:12;100862.94;;;-6.88;46.01
65546;BME280;52177;55.968;37.498;2022-12-07T00:56:43;100867.22;;;-6.87;45.77
65546;BME280;52177;55.968;37.498;2022-12-07T00:57:13;100857.72;;;-6.86;45.93
65546;BME280;52177;55.968;37.498;2022-12-07T00:57:43;100859.53;;;-6.90;45.71
65546;BME280;52177;55.968;37.498;2022-12-07T00:58:14;100858.63;;;-6.89;45.90
65546;BME280;52177;55.968;37.498;2022-12-07T00:58:48;100858.63;;;-6.89;45.81
65546;BME280;52177;55.968;37.498;2022-12-07T00:59:19;100856.03;;;-6.89;46.07
65546;BME280;52177;55.968;37.498;2022-12-07T00:59:49;100861.19;;;-6.87;46.00
65546;BME280;52177;55.968;37.498;2022-12-07T01:00:19;100853.41;;;-6.86;45.46
65546;BME280;52177;55.968;37.498;2022-12-07T01:00:49;100855.94;;;-6.84;45.24
65546;BME280;52177;55.968;37.498;2022-12-07T01:01:20;100861.94;;;-6.82;45.73
65546;BME280;52177;55.968;37.498;2022-12-07T01:01:50;100855.88;;;-6.81;45.41
65546;BME280;52177;55.968;37.498;2022-12-07T01:02:21;100856.72;;;-6.81;45.74
65546;BME280;52177;55.968;37.498;2022-12-07T01:02:51;100857.56;;;-6.80;45.77
65546;BME280;52177;55.968;37.498;2022-12-07T01:03:22;100861.94;;;-6.82;45.48
65546;BME280;52177;55.968;37.498;2022-12-07T01:03:52;100862.78;;;-6.82;45.55
65546;BME280;52177;55.968;37.498;2022-12-07T01:04:22;100854.19;;;-6.84;45.51
65546;BME280;52177;55.968;37.498;2022-12-07T01:04:53;100855.09;;;-6.85;45.55
65546;BME280;52177;55.968;37.498;2022-12-07T01:05:23;100850.84;;;-6.89;45.28
65546;BME280;52177;55.968;37.498;2022-12-07T01:05:53;100858.72;;;-6.92;45.47
65546;BME280;52177;55.968;37.498;2022-12-07T01:06:24;100851.78;;;-6.91;45.50
65546;BME280;52177;55.968;37.498;2022-12-07T01:06:55;100849.25;;;-6.93;45.38
65546;BME280;52177;55.968;37.498;2022-12-07T01:07:25;100856.09;;;-6.90;45.13
65546;BME280;52177;55.968;37.498;2022-12-07T01:07:55;100854.31;;;-6.88;45.55
65546;BME280;52177;55.968;37.498;2022-12-07T01:08:26;100860.34;;;-6.88;45.64
65546;BME280;52177;55.968;37.498;2022-12-07T01:08:57;100858.59;;;-6.87;45.90
65546;BME280;52177;55.968;37.498;2022-12-07T01:09:27;100851.69;;;-6.87;45.91
65546;BME280;52177;55.968;37.498;2022-12-07T01:09:58;100856.00;;;-6.87;46.08
65546;BME280;52177;55.968;37.498;2022-12-07T01:10:28;100855.22;;;-6.91;45.92
65546;BME280;52177;55.968;37.498;2022-12-07T01:11:01;100856.97;;;-6.91;46.00
65546;BME280;52177;55.968;37.498;2022-12-07T01:11:32;100855.22;;;-6.91;45.87
65546;BME280;52177;55.968;37.498;2022-12-07T01:12:02;100850.09;;;-6.92;45.97
65546;BME280;52177;55.968;37.498;2022-12-07T01:12:32;100855.19;;;-6.89;46.21
65546;BME280;52177;55.968;37.498;2022-12-07T01:13:03;100850.09;;;-6.92;46.14
65546;BME280;52177;55.968;37.498;2022-12-07T01:13:33;100855.41;;;-6.97;46.37
65546;BME280;52177;55.968;37.498;2022-12-07T01:14:04;100858.84;;;-6.96;46.34
65546;BME280;52177;55.968;37.498;2022-12-07T01:14:34;100860.53;;;-6.95;46.21
65546;BME280;52177;55.968;37.498;2022-12-07T01:15:05;100850.22;;;-6.98;46.18
65546;BME280;52177;55.968;37.498;2022-12-07T01:15:38;100857.13;;;-6.97;46.14
65546;BME280;52177;55.968;37.498;2022-12-07T01:16:09;100851.88;;;-6.94;46.23
65546;BME280;52177;55.968;37.498;2022-12-07T01:16:39;100854.47;;;-6.94;45.95
65546;BME280;52177;55.968;37.498;2022-12-07T01:17:10;100853.56;;;-6.93;46.10
65546;BME280;52177;55.968;37.498;2022-12-07T01:17:40;100848.47;;;-6.96;45.92
65546;BME280;52177;55.968;37.498;2022-12-07T01:18:10;100845.91;;;-6.98;45.80
65546;BME280;52177;55.968;37.498;2022-12-07T01:18:41;100850.22;;;-6.98;45.82
65546;BME280;52177;55.968;37.498;2022-12-07T01:19:11;100845.94;;;-6.99;45.76
65546;BME280;52177;55.968;37.498;2022-12-07T01:19:42;100857.97;;;-6.97;45.86
65546;BME280;52177;55.968;37.498;2022-12-07T01:20:12;100844.19;;;-6.97;45.66
65546;BME280;52177;55.968;37.498;2022-12-07T01:20:42;100848.47;;;-6.96;45.54
65546;BME280;52177;55.968;37.498;2022-12-07T01:21:14;100851.91;;;-6.96;46.02
65546;BME280;52177;55.968;37.498;2022-12-07T01:21:44;100846.78;;;-6.97;45.82
65546;BME280;52177;55.968;37.498;2022-12-07T01:22:15;100841.63;;;-6.99;45.71
65546;BME280;52177;55.968;37.498;2022-12-07T01:22:45;100851.13;;;-6.99;45.98
65546;BME280;52177;55.968;37.498;2022-12-07T01:23:15;100846.81;;;-7.01;45.86
65546;BME280;52177;55.968;37.498;2022-12-07T01:23:45;100846.88;;;-7.02;45.79
65546;BME280;52177;55.968;37.498;2022-12-07T01:24:16;100848.59;;;-7.03;46.07
65546;BME280;52177;55.968;37.498;2022-12-07T01:24:46;100841.72;;;-7.04;46.01
65546;BME280;52177;55.968;37.498;2022-12-07T01:25:18;100840.88;;;-7.04;46.05
65546;BME280;52177;55.968;37.498;2022-12-07T01:25:53;100851.19;;;-7.03;46.24
65546;BME280;52177;55.968;37.498;2022-12-07T01:26:24;100846.91;;;-7.04;46.17
65546;BME280;52177;55.968;37.498;2022-12-07T01:26:54;100855.53;;;-7.03;46.19
65546;BME280;52177;55.968;37.498;2022-12-07T01:27:24;100846.00;;;-7.03;45.99
65546;BME280;52177;55.968;37.498;2022-12-07T01:27:55;100845.16;;;-7.03;45.90
65546;BME280;52177;55.968;37.498;2022-12-07T01:28:25;100851.16;;;-7.01;46.03
65546;BME280;52177;55.968;37.498;2022-12-07T01:28:55;100841.72;;;-7.04;46.00
65546;BME280;52177;55.968;37.498;2022-12-07T01:29:27;100853.84;;;-7.04;46.44
65546;BME280;52177;55.968;37.498;2022-12-07T01:29:57;100846.88;;;-7.02;46.23
65546;BME280;52177;55.968;37.498;2022-12-07T01:30:27;100847.75;;;-7.03;46.13
65546;BME280;52177;55.968;37.498;2022-12-07T01:31:27;100846.91;;;-7.04;46.31
65546;BME280;52177;55.968;37.498;2022-12-07T01:31:58;100851.25;;;-7.04;46.31
65546;BME280;52177;55.968;37.498;2022-12-07T01:32:28;100858.97;;;-7.03;46.74
65546;BME280;52177;55.968;37.498;2022-12-07T01:32:58;100852.09;;;-7.04;45.87
65546;BME280;52177;55.968;37.498;2022-12-07T01:33:30;100852.13;;;-7.05;46.05
65546;BME280;52177;55.968;37.498;2022-12-07T01:34:00;100848.69;;;-7.06;46.22
65546;BME280;52177;55.968;37.498;2022-12-07T01:34:31;100847.00;;;-7.07;46.05
65546;BME280;52177;55.968;37.498;2022-12-07T01:35:01;100854.75;;;-7.07;45.79
65546;BME280;52177;55.968;37.498;2022-12-07T01:35:33;100847.84;;;-7.06;45.99
65546;BME280;52177;55.968;37.498;2022-12-07T01:36:04;100844.41;;;-7.07;46.03
65546;BME280;52177;55.968;37.498;2022-12-07T01:36:35;100847.91;;;-7.09;45.90
65546;BME280;52177;55.968;37.498;2022-12-07T01:37:05;100847.91;;;-7.09;46.09
65546;BME280;52177;55.968;37.498;2022-12-07T01:37:36;100853.97;;;-7.10;46.01
65546;BME280;52177;55.968;37.498;2022-12-07T01:38:06;100847.91;;;-7.09;45.96
65546;BME280;52177;55.968;37.498;2022-12-07T01:38:37;100840.16;;;-7.09;46.22
65546;BME280;52177;55.968;37.498;2022-12-07T01:39:09;100841.88;;;-7.10;46.34
65546;BME280;52177;55.968;37.498;2022-12-07T01:39:39;100846.19;;;-7.10;46.25
65546;BME280;52177;55.968;37.498;2022-12-07T01:40:11;100840.16;;;-7.09;46.12
65546;BME280;52177;55.968;37.498;2022-12-07T01:40:41;100840.16;;;-7.09;45.80
65546;BME280;52177;55.968;37.498;2022-12-07T01:41:12;100843.59;;;-7.09;45.79
65546;BME280;52177;55.968;37.498;2022-12-07T01:41:42;100842.75;;;-7.09;45.92
65546;BME280;52177;55.968;37.498;2022-12-07T01:42:13;100843.59;;;-7.09;45.80
65546;BME280;52177;55.968;37.498;2022-12-07T01:42:43;100843.59;;;-7.10;46.00
65546;BME280;52177;55.968;37.498;2022-12-07T01:43:16;100834.16;;;-7.11;46.12
65546;BME280;52177;55.968;37.498;2022-12-07T01:45:38;100840.25;;;-7.14;46.16
65546;BME280;52177;55.968;37.498;2022-12-07T01:46:09;100841.97;;;-7.14;46.14
65546;BME280;52177;55.968;37.498;2022-12-07T01:46:40;100839.38;;;-7.14;46.05
65546;BME280;52177;55.968;37.498;2022-12-07T01:47:10;100842.88;;;-7.15;45.72
65546;BME280;52177;55.968;37.498;2022-12-07T01:47:41;100844.63;;;-7.16;46.05
65546;BME280;52177;55.968;37.498;2022-12-07T01:48:13;100843.78;;;-7.18;45.81
65546;BME280;52177;55.968;37.498;2022-12-07T01:48:45;100842.06;;;-7.17;46.17
65546;BME280;52177;55.968;37.498;2022-12-07T01:49:17;100837.78;;;-7.18;46.29
65546;BME280;52177;55.968;37.498;2022-12-07T01:49:49;100841.22;;;-7.19;46.39
65546;BME280;52177;55.968;37.498;2022-12-07T01:50:19;100840.31;;;-7.17;46.19
65546;BME280;52177;55.968;37.498;2022-12-07T01:50:50;100835.13;;;-7.17;45.64
65546;BME280;52177;55.968;37.498;2022-12-07T01:51:22;100830.84;;;-7.18;45.83
65546;BME280;52177;55.968;37.498;2022-12-07T01:51:54;100833.44;;;-7.18;45.96
65546;BME280;52177;55.968;37.498;2022-12-07T01:52:30;100841.22;;;-7.18;46.03
65546;BME280;52177;55.968;37.498;2022-12-07T01:53:02;100842.06;;;-7.17;45.83
65546;BME280;52177;55.968;37.498;2022-12-07T01:53:34;100843.78;;;-7.18;45.85
65546;BME280;52177;55.968;37.498;2022-12-07T01:54:06;100833.44;;;-7.18;45.99
65546;BME280;52177;55.968;37.498;2022-12-07T01:54:36;100841.22;;;-7.19;45.93
65546;BME280;52177;55.968;37.498;2022-12-07T01:55:10;100832.63;;;-7.20;45.72
65546;BME280;52177;55.968;37.498;2022-12-07T01:55:42;100841.22;;;-7.19;46.06
65546;BME280;52177;55.968;37.498;2022-12-07T01:56:15;100839.47;;;-7.19;45.97
65546;BME280;52177;55.968;37.498;2022-12-07T01:56:49;100831.72;;;-7.19;45.86
65546;BME280;52177;55.968;37.498;2022-12-07T01:57:20;100841.22;;;-7.19;45.72
65546;BME280;52177;55.968;37.498;2022-12-07T01:57:52;100836.94;;;-7.20;45.99
65546;BME280;52177;55.968;37.498;2022-12-07T01:58:23;100836.09;;;-7.21;45.90
65546;BME280;52177;55.968;37.498;2022-12-07T01:58:54;100834.38;;;-7.22;46.27
65546;BME280;52177;55.968;37.498;2022-12-07T01:59:25;100829.19;;;-7.22;46.11
65546;BME280;52177;55.968;37.498;2022-12-07T01:59:56;100839.53;;;-7.20;46.09
65546;BME280;52177;55.968;37.498;2022-12-07T02:00:27;100834.34;;;-7.20;45.94
65546;BME280;52177;55.968;37.498;2022-12-07T02:00:57;100830.94;;;-7.21;46.12
65546;BME280;52177;55.968;37.498;2022-12-07T02:01:27;100836.97;;;-7.22;46.02
65546;BME280;52177;55.968;37.498;2022-12-07T02:01:58;100830.94;;;-7.23;46.08
65546;BME280;52177;55.968;37.498;2022-12-07T02:02:30;100838.72;;;-7.23;46.17
65546;BME280;52177;55.968;37.498;2022-12-07T02:03:36;100836.22;;;-7.26;46.17
65546;BME280;52177;55.968;37.498;2022-12-07T02:04:08;100831.94;;;-7.28;46.36
65546;BME280;52177;55.968;37.498;2022-12-07T02:04:38;100837.97;;;-7.28;46.18
65546;BME280;52177;55.968;37.498;2022-12-07T02:05:09;100826.81;;;-7.30;46.02
65546;BME280;52177;55.968;37.498;2022-12-07T02:05:40;100833.72;;;-7.30;45.80
65546;BME280;52177;55.968;37.498;2022-12-07T02:06:12;100839.78;;;-7.31;46.06
65546;BME280;52177;55.968;37.498;2022-12-07T02:06:45;100841.41;;;-7.26;46.24
65546;BME280;52177;55.968;37.498;2022-12-07T02:07:15;100834.50;;;-7.27;46.05
65546;BME280;52177;55.968;37.498;2022-12-07T02:07:46;100829.34;;;-7.28;46.27
65546;BME280;52177;55.968;37.498;2022-12-07T02:08:17;100832.81;;;-7.28;46.07
65546;BME280;52177;55.968;37.498;2022-12-07T02:08:48;100837.09;;;-7.28;46.00
65546;BME280;52177;55.968;37.498;2022-12-07T02:09:18;100834.50;;;-7.28;46.14
65546;BME280;52177;55.968;37.498;2022-12-07T02:09:49;100831.91;;;-7.27;46.11
65546;BME280;52177;55.968;37.498;2022-12-07T02:10:20;100831.91;;;-7.27;46.11
65546;BME280;52177;55.968;37.498;2022-12-07T02:10:51;100845.69;;;-7.26;46.28
65546;BME280;52177;55.968;37.498;2022-12-07T02:11:21;100832.75;;;-7.26;46.19
65546;BME280;52177;55.968;37.498;2022-12-07T02:11:51;100840.53;;;-7.26;46.22
65546;BME280;52177;55.968;37.498;2022-12-07T02:12:22;100835.41;;;-7.28;46.07
65546;BME280;52177;55.968;37.498;2022-12-07T02:12:57;100831.09;;;-7.29;46.19
65546;BME280;52177;55.968;37.498;2022-12-07T02:13:30;100831.09;;;-7.29;46.01
65546;BME280;52177;55.968;37.498;2022-12-07T02:14:00;100837.09;;;-7.28;46.15
65546;BME280;52177;55.968;37.498;2022-12-07T02:14:31;100838.00;;;-7.29;46.25
65546;BME280;52177;55.968;37.498;2022-12-07T02:15:01;100838.91;;;-7.30;46.27
65546;BME280;52177;55.968;37.498;2022-12-07T02:15:42;100837.16;;;-7.30;46.17
65546;BME280;52177;55.968;37.498;2022-12-07T02:16:54;100829.38;;;-7.30;46.02
65546;BME280;52177;55.968;37.498;2022-12-07T02:17:48;100825.97;;;-7.32;45.94
65546;BME280;52177;55.968;37.498;2022-12-07T02:25:02;100834.69;;;-7.34;45.91
65546;BME280;52177;55.968;37.498;2022-12-07T02:26:31;100833.00;;;-7.37;46.34
65546;BME280;52177;55.968;37.498;2022-12-07T02:27:07;100831.25;;;-7.36;46.44
65546;BME280;52177;55.968;37.498;2022-12-07T02:29:36;100825.28;;;-7.38;46.26
65546;BME280;52177;55.968;37.498;2022-12-07T02:30:10;100822.69;;;-7.38;45.99
65546;BME280;52177;55.968;37.498;2022-12-07T02:30:42;100827.84;;;-7.37;46.20
65546;BME280;52177;55.968;37.498;2022-12-07T02:31:16;100826.09;;;-7.38;45.75
65546;BME280;52177;55.968;37.498;2022-12-07T02:32:01;100819.16;;;-7.36;45.96
65546;BME280;52177;55.968;37.498;2022-12-07T02:33:09;100829.50;;;-7.34;45.77
65546;BME280;52177;55.968;37.498;2022-12-07T02:33:43;100812.22;;;-7.35;45.83
65546;BME280;52177;55.968;37.498;2022-12-07T02:35:28;100816.63;;;-7.37;45.60
65546;BME280;52177;55.968;37.498;2022-12-07T02:36:37;100828.56;;;-7.32;45.78
65546;BME280;52177;55.968;37.498;2022-12-07T02:37:10;100821.66;;;-7.33;45.38
65546;BME280;52177;55.968;37.498;2022-12-07T02:39:34;100814.81;;;-7.34;45.54
65546;BME280;52177;55.968;37.498;2022-12-07T02:40:11;100815.66;;;-7.33;45.55
65546;BME280;52177;55.968;37.498;2022-12-07T02:40:46;100820.81;;;-7.32;45.73
65546;BME280;52177;55.968;37.498;2022-12-07T02:41:25;100814.78;;;-7.32;45.89
65546;BME280;52177;55.968;37.498;2022-12-07T02:41:59;100822.53;;;-7.32;46.05
65546;BME280;52177;55.968;37.498;2022-12-07T02:42:38;100822.56;;;-7.34;45.73
65546;BME280;52177;55.968;37.498;2022-12-07T02:43:12;100818.22;;;-7.32;45.80
65546;BME280;52177;55.968;37.498;2022-12-07T02:44:15;100817.31;;;-7.31;45.68
65546;BME280;52177;55.968;37.498;2022-12-07T02:44:47;100813.88;;;-7.31;45.29
65546;BME280;52177;55.968;37.498;2022-12-07T02:45:18;100813.03;;;-7.32;45.37
65546;BME280;52177;55.968;37.498;2022-12-07T02:45:51;100813.88;;;-7.31;45.53
65546;BME280;52177;55.968;37.498;2022-12-07T02:46:24;100815.63;;;-7.32;45.59
65546;BME280;52177;55.968;37.498;2022-12-07T02:46:57;100815.59;;;-7.30;45.64
65546;BME280;52177;55.968;37.498;2022-12-07T02:47:29;100815.63;;;-7.32;45.50
65546;BME280;52177;55.968;37.498;2022-12-07T02:48:01;100820.81;;;-7.32;45.69
65546;BME280;52177;55.968;37.498;2022-12-07T02:48:32;100816.47;;;-7.31;45.80
65546;BME280;52177;55.968;37.498;2022-12-07T02:49:03;100818.19;;;-7.30;45.58
65546;BME280;52177;55.968;37.498;2022-12-07T02:49:35;100821.66;;;-7.31;45.73
65546;BME280;52177;55.968;37.498;2022-12-07T02:50:06;100817.38;;;-7.32;45.80
65546;BME280;52177;55.968;37.498;2022-12-07T02:50:37;100815.66;;;-7.33;45.90
65546;BME280;52177;55.968;37.498;2022-12-07T02:51:07;100818.25;;;-7.33;46.06
65546;BME280;52177;55.968;37.498;2022-12-07T02:51:41;100820.88;;;-7.35;45.92
65546;BME280;52177;55.968;37.498;2022-12-07T02:52:12;100813.06;;;-7.33;45.82
65546;BME280;52177;55.968;37.498;2022-12-07T02:52:42;100824.25;;;-7.33;45.40
65546;BME280;52177;55.968;37.498;2022-12-07T02:53:32;100820.88;;;-7.35;45.30
65546;BME280;52177;55.968;37.498;2022-12-07T02:54:02;100820.81;;;-7.33;45.52
65546;BME280;52177;55.968;37.498;2022-12-07T02:54:33;100815.63;;;-7.32;45.44
65546;BME280;52177;55.968;37.498;2022-12-07T02:55:03;100813.88;;;-7.31;45.62
65546;BME280;52177;55.968;37.498;2022-12-07T02:55:35;100815.59;;;-7.30;45.28
65546;BME280;52177;55.968;37.498;2022-12-07T02:57:58;100820.81;;;-7.32;45.02
65546;BME280;52177;55.968;37.498;2022-12-07T03:00:20;100818.25;;;-7.33;45.46
65546;BME280;52177;55.968;37.498;2022-12-07T03:01:15;100816.53;;;-7.34;45.48
65546;BME280;52177;55.968;37.498;2022-12-07T03:03:24;100806.22;;;-7.36;45.82
65546;BME280;52177;55.968;37.498;2022-12-07T03:03:59;100808.88;;;-7.39;46.20
65546;BME280;52177;55.968;37.498;2022-12-07T03:05:28;100812.28;;;-7.37;45.74
65546;BME280;52177;55.968;37.498;2022-12-07T03:06:10;100817.47;;;-7.37;45.76
65546;BME280;52177;55.968;37.498;2022-12-07T03:06:44;100817.41;;;-7.35;45.72
65546;BME280;52177;55.968;37.498;2022-12-07T03:07:26;100815.72;;;-7.36;45.76
65546;BME280;52177;55.968;37.498;2022-12-07T03:08:07;100811.38;;;-7.36;45.95